Time;durP1;ratioP1;P1;durP2;ratioP2;P2;SDS_P1;SDS_P2;PMS_P1;PMS_P2;Temp;Humidity;BMP_temperature;BMP_pressure;BME280_temperature;BME280_humidity;BME280_pressure;Samples;Min_cycle;Max_cycle;Signal;HPM_P1;HPM_P2
2023/07/11 00:01:25;;;;;;;;;;;;;;;18.50;62.59;100263.63;108157;1254;62824;-79
2023/07/11 00:03:52;;;;;;;;;;;;;;;18.45;62.84;100268.30;108131;1254;59508;-78
2023/07/11 00:06:20;;;;;;;;;;;;;;;18.44;63.02;100265.59;108163;1254;61108;-79
2023/07/11 00:08:47;;;;;;;;;;;;;;;18.45;63.17;100261.54;108113;1254;62018;-80
2023/07/11 00:11:14;;;;;;;;;;;;;;;18.44;63.29;100262.81;108154;1254;61268;-79
2023/07/11 00:13:41;;;;;;;;;;;;;;;18.40;63.52;100262.14;108152;1254;74617;-80
2023/07/11 00:16:08;;;;;;;;;;;;;;;18.35;63.75;100257.37;108143;1254;59243;-79
2023/07/11 00:18:36;;;;;;;;;;;;;;;18.34;63.66;100256.04;108109;1254;71432;-79
2023/07/11 00:21:04;;;;;;;;;;;;;;;18.32;63.83;100253.52;108132;1254;61017;-81
2023/07/11 00:23:30;;;;;;;;;;;;;;;18.29;64.06;100259.49;108144;1254;61183;-78
2023/07/11 00:25:57;;;;;;;;;;;;;;;18.26;64.15;100259.85;108119;1254;74780;-79
2023/07/11 00:28:23;;;;;;;;;;;;;;;18.26;64.26;100263.20;108159;1254;61209;-80
2023/07/11 00:30:50;;;;;;;;;;;;;;;18.26;64.26;100258.60;108125;1254;61159;-79
2023/07/11 00:33:16;;;;;;;;;;;;;;;18.28;64.32;100258.98;108055;1254;61986;-79
2023/07/11 00:35:44;;;;;;;;;;;;;;;18.29;64.46;100259.31;108133;1255;61102;-79
2023/07/11 00:38:15;;;;;;;;;;;;;;;18.28;64.58;100261.55;108138;1254;73322;-80
2023/07/11 00:40:45;;;;;;;;;;;;;;;18.27;64.53;100257.92;108187;1254;71423;-79
2023/07/11 00:43:12;;;;;;;;;;;;;;;18.25;64.55;100259.16;108063;1254;71202;-80
2023/07/11 00:45:51;;;;;;;;;;;;;;;18.24;64.34;100259.05;108201;1254;61323;-79
2023/07/11 00:48:19;;;;;;;;;;;;;;;18.22;64.30;100259.48;108138;1254;61330;-79
2023/07/11 00:50:47;;;;;;;;;;;;;;;18.21;64.27;100258.43;108149;1254;74866;-78
2023/07/11 00:53:14;;;;;;;;;;;;;;;18.22;64.33;100258.84;107951;1254;61115;-78
2023/07/11 00:55:41;;;;;;;;;;;;;;;18.18;64.34;100260.35;108103;1254;72881;-79
2023/07/11 00:58:08;;;;;;;;;;;;;;;18.16;64.40;100255.77;108139;1254;62037;-78
2023/07/11 01:00:37;;;;;;;;;;;;;;;18.19;64.30;100254.27;108047;1254;61125;-79
2023/07/11 01:03:04;;;;;;;;;;;;;;;18.16;64.27;100255.55;108227;1254;74654;-79
2023/07/11 01:05:32;;;;;;;;;;;;;;;18.14;64.20;100258.64;108218;1254;71576;-79
2023/07/11 01:07:59;;;;;;;;;;;;;;;18.13;64.13;100255.73;108156;1254;72463;-79
2023/07/11 01:10:26;;;;;;;;;;;;;;;18.12;64.06;100255.07;108186;1254;61206;-79
2023/07/11 01:12:56;;;;;;;;;;;;;;;18.11;64.04;100255.54;108201;1254;61118;-80
2023/07/11 01:15:23;;;;;;;;;;;;;;;18.08;64.06;100255.29;108159;1254;74646;-78
2023/07/11 01:17:49;;;;;;;;;;;;;;;18.05;64.08;100253.45;108119;1254;72784;-78
2023/07/11 01:20:17;;;;;;;;;;;;;;;18.02;64.10;100254.60;108172;1253;72454;-78
2023/07/11 01:22:44;;;;;;;;;;;;;;;17.98;64.07;100254.59;108109;1254;61855;-79
2023/07/11 01:25:13;;;;;;;;;;;;;;;17.98;64.12;100250.17;108161;1254;61116;-78
2023/07/11 01:27:45;;;;;;;;;;;;;;;17.96;64.18;100247.36;108147;1254;74618;-79
2023/07/11 01:30:14;;;;;;;;;;;;;;;17.95;64.23;100249.05;108140;1254;71618;-78
2023/07/11 01:32:41;;;;;;;;;;;;;;;17.95;64.36;100246.80;108127;1257;72738;-79
2023/07/11 01:35:08;;;;;;;;;;;;;;;17.95;64.30;100246.54;108132;1253;61874;-79
2023/07/11 01:37:35;;;;;;;;;;;;;;;17.97;64.23;100246.64;108171;1254;61274;-79
2023/07/11 01:40:02;;;;;;;;;;;;;;;17.97;64.32;100247.49;108084;1254;74739;-77
2023/07/11 01:42:29;;;;;;;;;;;;;;;17.94;64.45;100247.30;108153;1254;72647;-79
2023/07/11 01:44:57;;;;;;;;;;;;;;;17.93;64.45;100248.80;108136;1256;72862;-78
2023/07/11 01:47:24;;;;;;;;;;;;;;;17.94;64.70;100248.36;108152;1254;61298;-79
2023/07/11 01:49:50;;;;;;;;;;;;;;;17.95;64.77;100246.02;108150;1254;61177;-78
2023/07/11 01:52:21;;;;;;;;;;;;;;;17.97;64.81;100246.73;108157;1254;73108;-80
2023/07/11 01:54:48;;;;;;;;;;;;;;;18.00;64.83;100252.98;108131;1254;72741;-79
2023/07/11 01:57:14;;;;;;;;;;;;;;;18.00;64.90;100253.73;108144;1254;68549;-78
2023/07/11 01:59:41;;;;;;;;;;;;;;;17.96;65.12;100252.64;108133;1254;61799;-79
2023/07/11 02:02:08;;;;;;;;;;;;;;;17.95;65.19;100249.80;108150;1254;59353;-79
2023/07/11 02:04:35;;;;;;;;;;;;;;;17.97;65.40;100247.56;108149;1254;74666;-79
2023/07/11 02:07:03;;;;;;;;;;;;;;;17.98;65.42;100245.40;108147;1257;73111;-79
2023/07/11 02:09:29;;;;;;;;;;;;;;;18.00;65.54;100244.80;108155;1254;72853;-78
2023/07/11 02:11:56;;;;;;;;;;;;;;;18.02;65.64;100247.45;108135;1254;61780;-79
2023/07/11 02:14:24;;;;;;;;;;;;;;;18.04;65.65;100246.54;108071;1253;61116;-79
2023/07/11 02:16:51;;;;;;;;;;;;;;;18.05;65.88;100242.94;108167;1254;59958;-79
2023/07/11 02:19:20;;;;;;;;;;;;;;;18.03;65.95;100241.48;108117;1254;72545;-79
2023/07/11 02:21:46;;;;;;;;;;;;;;;18.04;66.08;100240.68;108153;1254;72801;-78
2023/07/11 02:24:13;;;;;;;;;;;;;;;18.07;66.11;100239.77;108142;1254;61198;-79
2023/07/11 02:26:40;;;;;;;;;;;;;;;18.09;66.20;100242.42;108158;1255;61174;-80
2023/07/11 02:29:07;;;;;;;;;;;;;;;18.11;66.27;100238.98;108179;1254;61279;-80
2023/07/11 02:31:34;;;;;;;;;;;;;;;18.11;66.37;100242.98;108218;1253;72750;-78
2023/07/11 02:34:01;;;;;;;;;;;;;;;18.13;66.42;100239.08;108201;1257;72676;-79
2023/07/11 02:36:28;;;;;;;;;;;;;;;18.16;66.58;100242.29;108191;1253;61858;-80
2023/07/11 02:38:54;;;;;;;;;;;;;;;18.20;66.60;100242.94;108150;1253;61095;-79
2023/07/11 02:41:21;;;;;;;;;;;;;;;18.24;66.64;100243.66;108169;1254;61031;-78
2023/07/11 02:43:48;;;;;;;;;;;;;;;18.26;66.67;100241.22;108164;1254;72766;-79
2023/07/11 02:46:15;;;;;;;;;;;;;;;18.28;66.76;100243.01;108203;1257;72510;-78
2023/07/11 02:48:43;;;;;;;;;;;;;;;18.28;66.80;100249.50;108165;1253;61723;-80
2023/07/11 02:51:10;;;;;;;;;;;;;;;18.29;66.81;100251.63;108196;1254;61106;-80
2023/07/11 02:53:36;;;;;;;;;;;;;;;18.31;66.94;100253.77;108205;1254;73420;-80
2023/07/11 02:56:03;;;;;;;;;;;;;;;18.33;66.97;100253.86;108173;1254;61100;-79
2023/07/11 02:58:29;;;;;;;;;;;;;;;18.34;66.97;100252.77;108123;1254;72582;-79
2023/07/11 03:00:57;;;;;;;;;;;;;;;18.38;66.90;100250.69;108150;1254;62343;-79
2023/07/11 03:03:24;;;;;;;;;;;;;;;18.42;66.96;100243.80;108137;1254;59772;-79
2023/07/11 03:05:51;;;;;;;;;;;;;;;18.47;66.92;100244.27;108169;1254;61286;-79
2023/07/11 03:08:17;;;;;;;;;;;;;;;18.54;66.85;100244.48;108133;1254;72802;-79
2023/07/11 03:10:44;;;;;;;;;;;;;;;18.57;66.78;100240.42;108154;1257;61148;-80
2023/07/11 03:13:11;;;;;;;;;;;;;;;18.61;66.76;100237.98;108149;1254;61109;-79
2023/07/11 03:15:38;;;;;;;;;;;;;;;18.66;66.76;100237.54;108179;1254;61120;-79
2023/07/11 03:18:05;;;;;;;;;;;;;;;18.72;66.58;100238.02;108167;1254;74411;-78
2023/07/11 03:20:35;;;;;;;;;;;;;;;18.78;66.44;100243.18;108163;1254;72404;-78
2023/07/11 03:23:02;;;;;;;;;;;;;;;18.85;66.51;100248.38;108135;1254;72729;-79
2023/07/11 03:25:28;;;;;;;;;;;;;;;18.91;66.39;100246.14;108177;1254;61113;-79
2023/07/11 03:27:55;;;;;;;;;;;;;;;18.96;66.14;100240.78;108157;1258;61351;-80
2023/07/11 03:30:21;;;;;;;;;;;;;;;19.00;66.14;100239.35;108158;1255;61100;-79
2023/07/11 03:32:48;;;;;;;;;;;;;;;19.06;66.03;100237.88;108163;1254;61150;-80
2023/07/11 03:35:14;;;;;;;;;;;;;;;19.10;65.82;100236.46;108132;1254;61235;-79
2023/07/11 03:37:41;;;;;;;;;;;;;;;19.14;65.73;100240.95;108141;1254;61667;-79
2023/07/11 03:40:08;;;;;;;;;;;;;;;19.18;65.56;100241.89;108162;1254;61081;-80
2023/07/11 03:42:35;;;;;;;;;;;;;;;19.26;65.47;100238.59;108155;1254;75781;-80
2023/07/11 03:45:03;;;;;;;;;;;;;;;19.29;65.41;100241.49;108124;1254;72735;-79
2023/07/11 03:47:29;;;;;;;;;;;;;;;19.30;65.32;100241.77;108139;1254;71651;-79
2023/07/11 03:49:56;;;;;;;;;;;;;;;19.31;65.14;100239.73;108134;1254;61904;-78
2023/07/11 03:52:22;;;;;;;;;;;;;;;19.33;65.31;100241.51;108171;1254;61144;-79
2023/07/11 03:54:49;;;;;;;;;;;;;;;19.38;65.59;100243.37;108141;1254;61267;-80
2023/07/11 03:57:16;;;;;;;;;;;;;;;19.45;65.59;100243.85;108170;1254;72709;-80
2023/07/11 03:59:47;;;;;;;;;;;;;;;19.52;65.39;100249.40;108119;1257;72738;-80
2023/07/11 04:02:15;;;;;;;;;;;;;;;19.56;64.96;100247.71;108094;1254;61293;-79
2023/07/11 04:04:48;;;;;;;;;;;;;;;19.58;64.85;100242.59;108163;1254;61151;-79
2023/07/11 04:07:17;;;;;;;;;;;;;;;19.61;64.67;100243.58;108191;1254;74513;-79
2023/07/11 04:09:45;;;;;;;;;;;;;;;19.61;64.36;100240.46;108173;1254;74688;-79
2023/07/11 04:12:21;;;;;;;;;;;;;;;19.64;64.40;100241.19;108205;1257;73470;-80
2023/07/11 04:14:49;;;;;;;;;;;;;;;19.69;64.39;100237.77;108122;1253;61254;-80
2023/07/11 04:17:17;;;;;;;;;;;;;;;19.76;64.22;100240.29;108191;1256;61162;-79
2023/07/11 04:19:48;;;;;;;;;;;;;;;19.83;64.11;100238.91;108163;1254;74434;-80
2023/07/11 04:22:22;;;;;;;;;;;;;;;19.90;64.00;100238.84;108173;1254;72835;-79
2023/07/11 04:24:58;;;;;;;;;;;;;;;19.97;63.75;100231.89;108128;1254;71474;-79
2023/07/11 04:27:44;;;;;;;;;;;;;;;20.04;63.64;100221.16;108116;1254;61034;-79
2023/07/11 04:30:24;;;;;;;;;;;;;;;20.10;63.20;100226.89;108138;1254;61103;-79
2023/07/11 04:32:58;;;;;;;;;;;;;;;20.15;63.29;100232.96;108192;1253;74380;-79
2023/07/11 04:35:34;;;;;;;;;;;;;;;20.21;63.03;100237.55;108215;1254;72741;-79
2023/07/11 04:38:16;;;;;;;;;;;;;;;20.26;62.53;100242.07;108241;1257;71294;-80
2023/07/11 04:41:05;;;;;;;;;;;;;;;20.30;62.27;100252.23;108209;1253;61763;-81
2023/07/11 04:43:33;;;;;;;;;;;;;;;20.35;62.19;100260.09;108065;1254;61114;-78
2023/07/11 04:46:00;;;;;;;;;;;;;;;20.40;61.97;100259.09;108178;1254;73579;-79
2023/07/11 04:48:27;;;;;;;;;;;;;;;20.44;61.70;100255.84;108200;1254;72431;-78
2023/07/11 04:51:01;;;;;;;;;;;;;;;20.49;61.52;100253.63;108224;1254;62934;-79
2023/07/11 04:53:28;;;;;;;;;;;;;;;20.57;61.45;100253.94;108180;1254;61972;-79
2023/07/11 04:55:55;;;;;;;;;;;;;;;20.65;61.13;100253.30;108087;1254;61157;-78
2023/07/11 04:58:23;;;;;;;;;;;;;;;20.72;60.97;100248.74;108177;1254;73338;-78
2023/07/11 05:00:49;;;;;;;;;;;;;;;20.81;60.66;100247.06;108175;1254;73897;-79
2023/07/11 05:03:16;;;;;;;;;;;;;;;20.88;60.19;100244.96;108088;1254;61021;-79
2023/07/11 05:05:43;;;;;;;;;;;;;;;20.92;60.07;100244.36;108092;1254;61213;-79
2023/07/11 05:08:09;;;;;;;;;;;;;;;20.98;59.71;100240.23;108083;1254;61161;-79
2023/07/11 05:10:35;;;;;;;;;;;;;;;21.03;59.34;100244.05;108107;1254;61257;-80
2023/07/11 05:13:02;;;;;;;;;;;;;;;21.09;59.32;100245.73;108102;1254;60470;-78
2023/07/11 05:15:28;;;;;;;;;;;;;;;21.19;59.41;100247.88;108168;1254;61383;-78
2023/07/11 05:17:55;;;;;;;;;;;;;;;21.27;58.86;100246.19;108164;1254;61213;-79
2023/07/11 05:20:21;;;;;;;;;;;;;;;21.34;58.52;100245.25;108218;1257;60081;-78
2023/07/11 05:22:47;;;;;;;;;;;;;;;21.38;58.08;100243.87;108182;1254;61350;-78
2023/07/11 05:25:14;;;;;;;;;;;;;;;21.45;57.90;100246.19;108219;1254;61258;-78
2023/07/11 05:27:57;;;;;;;;;;;;;;;21.56;57.50;100246.79;108148;1254;72739;-79
2023/07/11 05:30:23;;;;;;;;;;;;;;;21.66;56.80;100246.02;108194;1254;61117;-78
2023/07/11 05:32:51;;;;;;;;;;;;;;;21.71;56.93;100240.08;108201;1254;61360;-79
2023/07/11 05:35:17;;;;;;;;;;;;;;;21.77;56.99;100241.19;108219;1254;74509;-78
2023/07/11 05:37:44;;;;;;;;;;;;;;;21.77;56.80;100239.77;108203;1254;72516;-79
2023/07/11 05:40:11;;;;;;;;;;;;;;;21.80;56.86;100241.73;108189;1257;72861;-79
2023/07/11 05:42:38;;;;;;;;;;;;;;;21.89;56.32;100242.49;108174;1254;61919;-77
2023/07/11 05:45:05;;;;;;;;;;;;;;;21.91;56.18;100240.05;108128;1254;61317;-79
2023/07/11 05:47:31;;;;;;;;;;;;;;;21.93;55.78;100238.42;108221;1254;74756;-78
2023/07/11 05:49:58;;;;;;;;;;;;;;;21.98;54.97;100236.94;108182;1254;72800;-78
2023/07/11 05:52:25;;;;;;;;;;;;;;;22.01;54.31;100234.79;108192;1256;72698;-78
2023/07/11 05:54:52;;;;;;;;;;;;;;;22.04;54.41;100234.39;108176;1253;61245;-79
2023/07/11 05:57:18;;;;;;;;;;;;;;;22.09;54.61;100234.73;108217;1254;61114;-79
2023/07/11 05:59:44;;;;;;;;;;;;;;;22.15;54.56;100237.86;108208;1254;60532;-79
2023/07/11 06:02:10;;;;;;;;;;;;;;;22.19;54.43;100237.63;108197;1255;61248;-79
2023/07/11 06:04:37;;;;;;;;;;;;;;;22.25;54.44;100229.95;108258;1255;61079;-78
2023/07/11 06:07:04;;;;;;;;;;;;;;;22.32;54.25;100226.17;108213;1254;61270;-79
2023/07/11 06:09:31;;;;;;;;;;;;;;;22.38;54.13;100222.30;108240;1253;61325;-80
2023/07/11 06:12:01;;;;;;;;;;;;;;;22.47;53.66;100222.19;108237;1255;74803;-78
2023/07/11 06:14:29;;;;;;;;;;;;;;;22.56;53.53;100225.14;108215;1254;72864;-79
2023/07/11 06:16:55;;;;;;;;;;;;;;;22.62;53.31;100226.41;108208;1254;61103;-79
2023/07/11 06:19:22;;;;;;;;;;;;;;;22.68;52.68;100225.58;108207;1254;61191;-79
2023/07/11 06:21:50;;;;;;;;;;;;;;;22.69;52.40;100220.17;108025;1254;61145;-79
2023/07/11 06:24:16;;;;;;;;;;;;;;;22.74;51.97;100222.91;85500;1254;10002218;-76
2023/07/11 06:26:42;;;;;;;;;;;;;;;22.79;51.28;100224.85;107978;1253;61154;-79
2023/07/11 06:29:09;;;;;;;;;;;;;;;22.84;50.28;100220.88;108098;1254;61251;-79
2023/07/11 06:31:36;;;;;;;;;;;;;;;22.92;49.61;100221.40;108101;1254;61270;-79
2023/07/11 06:34:02;;;;;;;;;;;;;;;23.00;49.61;100218.22;108073;1254;61162;-79
2023/07/11 06:36:29;;;;;;;;;;;;;;;23.07;49.65;100220.73;108105;1254;61207;-79
2023/07/11 06:38:57;;;;;;;;;;;;;;;23.13;49.18;100216.21;108186;1255;61252;-78
2023/07/11 06:41:28;;;;;;;;;;;;;;;23.19;48.94;100220.80;108173;1255;72685;-79
2023/07/11 06:43:55;;;;;;;;;;;;;;;23.26;48.47;100210.10;108210;1255;61109;-79
2023/07/11 06:46:21;;;;;;;;;;;;;;;23.31;47.76;100211.63;108143;1254;61176;-78
2023/07/11 06:48:49;;;;;;;;;;;;;;;23.35;48.09;100211.02;108221;1255;74485;-78
2023/07/11 06:51:15;;;;;;;;;;;;;;;23.44;48.45;100212.80;108176;1254;61354;-79
2023/07/11 06:53:42;;;;;;;;;;;;;;;23.56;48.19;100210.03;108074;1254;59900;-80
2023/07/11 06:56:10;;;;;;;;;;;;;;;23.67;47.20;100215.77;108146;1256;61221;-79
2023/07/11 06:58:40;;;;;;;;;;;;;;;23.81;46.92;100209.95;108227;1254;61284;-78
2023/07/11 07:01:06;;;;;;;;;;;;;;;23.90;46.67;100209.23;108154;1254;61122;-79
2023/07/11 07:03:40;;;;;;;;;;;;;;;23.96;45.65;100206.26;108172;1255;72776;-79
2023/07/11 07:06:10;;;;;;;;;;;;;;;23.95;45.19;100210.35;108224;1256;72646;-80
2023/07/11 07:08:38;;;;;;;;;;;;;;;23.95;44.86;100211.13;108210;1254;60336;-77
2023/07/11 07:11:05;;;;;;;;;;;;;;;23.99;43.82;100208.27;108196;1255;61206;-78
2023/07/11 07:13:32;;;;;;;;;;;;;;;24.02;44.17;100206.70;108196;1255;74611;-78
2023/07/11 07:15:59;;;;;;;;;;;;;;;24.09;44.05;100210.52;108147;1256;72539;-78
2023/07/11 07:18:27;;;;;;;;;;;;;;;24.14;43.94;100207.80;108104;1257;72528;-78
2023/07/11 07:20:53;;;;;;;;;;;;;;;24.20;43.92;100204.75;108173;1254;61241;-78
2023/07/11 07:23:25;;;;;;;;;;;;;;;24.23;43.83;100201.14;108153;1254;61120;-78
2023/07/11 07:25:53;;;;;;;;;;;;;;;24.26;43.60;100207.37;108133;1255;74652;-77
2023/07/11 07:28:20;;;;;;;;;;;;;;;24.27;43.29;100211.90;108117;1256;71448;-79
2023/07/11 07:30:47;;;;;;;;;;;;;;;24.30;43.54;100205.27;108174;1255;70167;-79
2023/07/11 07:33:14;;;;;;;;;;;;;;;24.32;43.12;100202.66;108132;1255;61222;-78
2023/07/11 07:35:41;;;;;;;;;;;;;;;24.31;42.46;100203.17;108104;1254;60214;-77
2023/07/11 07:38:09;;;;;;;;;;;;;;;24.27;42.33;100208.17;108073;1257;74668;-78
2023/07/11 07:40:36;;;;;;;;;;;;;;;24.25;42.46;100207.74;108196;1256;72892;-78
2023/07/11 07:43:05;;;;;;;;;;;;;;;24.27;42.75;100196.47;108161;1256;73823;-77
2023/07/11 07:45:32;;;;;;;;;;;;;;;24.28;41.58;100199.91;108229;1255;61093;-78
2023/07/11 07:47:59;;;;;;;;;;;;;;;24.25;41.31;100201.74;108182;1254;61136;-78
2023/07/11 07:50:25;;;;;;;;;;;;;;;24.29;41.74;100199.86;108192;1253;74628;-78
2023/07/11 07:52:52;;;;;;;;;;;;;;;24.39;41.89;100196.50;108166;1256;61138;-78
2023/07/11 07:55:18;;;;;;;;;;;;;;;24.52;40.70;100199.13;108241;1254;61252;-77
2023/07/11 07:57:45;;;;;;;;;;;;;;;24.52;40.27;100200.53;108231;1257;61141;-77
2023/07/11 08:00:12;;;;;;;;;;;;;;;24.52;40.14;100199.52;108192;1254;61567;-78
2023/07/11 08:02:42;;;;;;;;;;;;;;;24.53;40.14;100203.73;108301;1254;74516;-78
2023/07/11 08:05:09;;;;;;;;;;;;;;;24.58;39.29;100201.50;108245;1256;72590;-78
2023/07/11 08:07:37;;;;;;;;;;;;;;;24.65;38.98;100204.98;108220;1256;72618;-79
2023/07/11 08:10:10;;;;;;;;;;;;;;;24.73;38.92;100203.59;108206;1254;61127;-78
2023/07/11 08:12:37;;;;;;;;;;;;;;;24.81;38.78;100207.15;108205;1254;61140;-76
2023/07/11 08:15:07;;;;;;;;;;;;;;;24.79;38.43;100205.96;108232;1254;74775;-79
2023/07/11 08:17:34;;;;;;;;;;;;;;;24.61;38.34;100210.61;108201;1254;73114;-79
2023/07/11 08:20:01;;;;;;;;;;;;;;;24.43;38.69;100203.93;108155;1255;72463;-78
2023/07/11 08:22:28;;;;;;;;;;;;;;;24.35;39.09;100201.23;108213;1255;61226;-77
2023/07/11 08:24:54;;;;;;;;;;;;;;;24.38;38.96;100202.94;108208;1255;61250;-77
2023/07/11 08:27:22;;;;;;;;;;;;;;;24.43;38.64;100201.59;108219;1254;74443;-78
2023/07/11 08:29:49;;;;;;;;;;;;;;;24.43;38.33;100204.61;108135;1254;61251;-77
2023/07/11 08:32:15;;;;;;;;;;;;;;;24.37;38.17;100200.10;108159;1255;61367;-78
2023/07/11 08:34:42;;;;;;;;;;;;;;;24.33;38.13;100193.41;108179;1255;61304;-78
2023/07/11 08:37:09;;;;;;;;;;;;;;;24.33;38.29;100192.14;108246;1254;61114;-78
2023/07/11 08:39:39;;;;;;;;;;;;;;;24.34;38.79;100196.55;108242;1254;74439;-77
2023/07/11 08:42:06;;;;;;;;;;;;;;;24.42;38.90;100198.66;108270;1254;72743;-78
2023/07/11 08:44:41;;;;;;;;;;;;;;;24.51;38.89;100198.16;108265;1254;72746;-80
2023/07/11 08:47:11;;;;;;;;;;;;;;;24.59;38.68;100191.14;108165;1254;61265;-77
2023/07/11 08:49:43;;;;;;;;;;;;;;;24.64;38.16;100188.50;108249;1256;61218;-82
2023/07/11 08:52:10;;;;;;;;;;;;;;;24.70;38.10;100188.38;108284;1254;74703;-78
2023/07/11 08:54:44;;;;;;;;;;;;;;;24.81;38.36;100187.34;108258;1256;72587;-78
2023/07/11 08:57:11;;;;;;;;;;;;;;;24.95;37.99;100192.75;108216;1258;72974;-78
2023/07/11 08:59:55;;;;;;;;;;;;;;;25.03;37.54;100184.09;108316;1255;61309;-77
2023/07/11 09:02:33;;;;;;;;;;;;;;;25.11;37.52;100187.56;108369;1257;61113;-77
2023/07/11 09:05:00;;;;;;;;;;;;;;;25.14;37.31;100184.84;108365;1257;74699;-77
2023/07/11 09:07:40;;;;;;;;;;;;;;;25.17;36.88;100182.85;89806;1256;10002470;-84
2023/07/11 09:10:22;;;;;;;;;;;;;;;25.14;37.27;100178.24;108714;1254;73460;-82
2023/07/11 09:13:21;;;;;;;;;;;;;;;25.18;37.81;100187.00;108428;1254;73930;-82
2023/07/11 09:16:08;;;;;;;;;;;;;;;25.29;37.12;100189.61;108020;1256;72007;-82
2023/07/11 09:18:48;;;;;;;;;;;;;;;25.44;36.74;100193.52;108268;1254;61362;-82
2023/07/11 09:21:19;;;;;;;;;;;;;;;25.57;36.55;100183.02;108225;1254;61257;-84
2023/07/11 09:23:51;;;;;;;;;;;;;;;25.68;36.10;100177.64;108102;1254;74978;-80
2023/07/11 09:26:23;;;;;;;;;;;;;;;25.71;36.28;100177.14;108263;1256;71768;-80
2023/07/11 09:28:51;;;;;;;;;;;;;;;25.75;35.86;100171.03;108075;1256;73509;-79
2023/07/11 09:31:18;;;;;;;;;;;;;;;25.66;35.95;100174.02;108180;1254;61116;-80
2023/07/11 09:33:52;;;;;;;;;;;;;;;25.52;35.88;100179.11;108238;1255;60116;-79
2023/07/11 09:36:23;;;;;;;;;;;;;;;25.38;36.35;100175.63;108242;1256;74487;-80
2023/07/11 09:38:55;;;;;;;;;;;;;;;25.24;36.31;100175.33;108232;1256;72787;-79
2023/07/11 09:41:43;;;;;;;;;;;;;;;25.11;37.15;100178.52;108234;1256;72537;-78
2023/07/11 09:44:20;;;;;;;;;;;;;;;25.05;37.54;100175.20;108033;1255;61262;-79
2023/07/11 09:46:46;;;;;;;;;;;;;;;25.02;37.03;100171.48;108177;1258;61264;-79
2023/07/11 09:49:18;;;;;;;;;;;;;;;25.07;37.46;100168.83;108185;1256;75932;-78
2023/07/11 09:51:46;;;;;;;;;;;;;;;25.17;37.52;100172.38;108227;1256;71888;-79
2023/07/11 09:54:18;;;;;;;;;;;;;;;25.30;37.22;100167.91;108228;1254;72759;-78
2023/07/11 09:56:45;;;;;;;;;;;;;;;25.49;37.16;100170.23;108089;1254;61217;-78
2023/07/11 09:59:12;;;;;;;;;;;;;;;25.63;36.97;100168.50;108048;1254;60003;-77
2023/07/11 10:01:39;;;;;;;;;;;;;;;25.67;36.03;100169.98;108217;1256;77058;-78
2023/07/11 10:04:10;;;;;;;;;;;;;;;25.61;35.98;100170.27;108199;1254;71893;-78
2023/07/11 10:06:39;;;;;;;;;;;;;;;25.63;36.58;100167.80;108148;1254;72625;-79
2023/07/11 10:09:14;;;;;;;;;;;;;;;25.82;36.70;100166.30;108151;1255;61547;-77
2023/07/11 10:11:41;;;;;;;;;;;;;;;26.04;35.89;100172.23;108203;1256;61106;-78
2023/07/11 10:14:15;;;;;;;;;;;;;;;26.21;35.55;100165.32;108164;1255;74922;-78
2023/07/11 10:16:42;;;;;;;;;;;;;;;26.32;36.01;100160.76;108253;1254;72883;-79
2023/07/11 10:19:16;;;;;;;;;;;;;;;26.40;35.87;100163.75;108051;1256;72579;-78
2023/07/11 10:21:44;;;;;;;;;;;;;;;26.36;35.77;100165.35;108096;1254;61158;-78
2023/07/11 10:24:20;;;;;;;;;;;;;;;26.27;35.08;100163.84;108217;1256;61271;-78
2023/07/11 10:26:47;;;;;;;;;;;;;;;26.20;35.14;100165.86;108074;1254;74567;-82
2023/07/11 10:29:16;;;;;;;;;;;;;;;26.17;35.20;100158.32;108112;1256;72882;-77
2023/07/11 10:31:59;;;;;;;;;;;;;;;26.18;35.63;100160.36;108001;1254;72765;-78
2023/07/11 10:34:37;;;;;;;;;;;;;;;26.17;35.08;100162.54;108052;1255;61246;-79
2023/07/11 10:37:13;;;;;;;;;;;;;;;26.16;35.30;100167.70;108351;1255;61290;-77
2023/07/11 10:39:44;;;;;;;;;;;;;;;26.23;35.16;100165.05;108118;1258;73088;-78
2023/07/11 10:42:11;;;;;;;;;;;;;;;26.32;35.04;100157.25;108124;1254;72546;-79
2023/07/11 10:44:43;;;;;;;;;;;;;;;26.44;35.29;100164.91;108030;1257;74174;-78
2023/07/11 10:47:10;;;;;;;;;;;;;;;26.49;34.64;100164.27;108165;1255;61441;-79
2023/07/11 10:49:44;;;;;;;;;;;;;;;26.47;34.68;100161.64;108079;1255;61347;-78
2023/07/11 10:52:11;;;;;;;;;;;;;;;26.53;35.10;100166.74;108139;1254;74763;-78
2023/07/11 10:54:42;;;;;;;;;;;;;;;26.60;34.87;100161.98;108117;1255;71438;-78
2023/07/11 10:57:14;;;;;;;;;;;;;;;26.73;34.76;100162.49;108110;1255;72506;-78
2023/07/11 10:59:42;;;;;;;;;;;;;;;26.88;34.05;100164.84;108122;1254;61125;-78
2023/07/11 11:02:21;;;;;;;;;;;;;;;26.96;34.12;100158.65;108053;1254;61331;-79
2023/07/11 11:04:50;;;;;;;;;;;;;;;27.10;33.83;100160.75;108109;1254;74658;-78
2023/07/11 11:07:38;;;;;;;;;;;;;;;27.09;33.58;100154.61;108072;1254;72868;-78
2023/07/11 11:10:11;;;;;;;;;;;;;;;26.95;33.52;100159.50;107996;1256;72584;-78
2023/07/11 11:12:40;;;;;;;;;;;;;;;26.80;33.96;100162.49;107955;1255;61166;-79
2023/07/11 11:15:13;;;;;;;;;;;;;;;26.63;33.28;100161.22;107958;1256;61183;-80
2023/07/11 11:17:55;;;;;;;;;;;;;;;26.39;33.86;100163.81;108209;1258;74556;-78
2023/07/11 11:20:32;;;;;;;;;;;;;;;26.25;34.03;100160.14;108066;1256;72854;-79
2023/07/11 11:23:17;;;;;;;;;;;;;;;26.17;34.83;100163.32;108166;1258;72724;-79
2023/07/11 11:25:52;;;;;;;;;;;;;;;26.09;35.24;100170.41;108169;1255;61151;-79
2023/07/11 11:28:22;;;;;;;;;;;;;;;26.08;35.21;100165.79;108296;1254;61079;-79
2023/07/11 11:30:55;;;;;;;;;;;;;;;26.12;35.08;100162.48;108234;1257;74724;-79
2023/07/11 11:33:43;;;;;;;;;;;;;;;26.24;35.14;100159.58;108184;1254;72817;-78
2023/07/11 11:36:19;;;;;;;;;;;;;;;26.43;35.00;100154.89;104178;1257;71879;-79
2023/07/11 11:38:49;;;;;;;;;;;;;;;26.65;34.32;100151.87;108129;1258;61232;-80
2023/07/11 11:41:18;;;;;;;;;;;;;;;26.83;34.23;100151.72;108120;1254;74461;-81
2023/07/11 11:43:53;;;;;;;;;;;;;;;26.97;33.26;100154.12;108114;1254;71342;-78
2023/07/11 11:46:23;;;;;;;;;;;;;;;27.04;33.32;100147.98;108035;1256;71197;-78
2023/07/11 11:48:56;;;;;;;;;;;;;;;27.08;33.27;100142.54;108197;1254;61232;-79
2023/07/11 11:51:26;;;;;;;;;;;;;;;27.06;33.16;100144.02;108215;1253;61283;-79
2023/07/11 11:54:05;;;;;;;;;;;;;;;26.99;33.44;100145.20;108068;1254;74678;-79
2023/07/11 11:56:36;;;;;;;;;;;;;;;26.92;33.17;100147.27;108200;1255;72761;-78
2023/07/11 11:59:06;;;;;;;;;;;;;;;26.86;33.60;100152.13;107979;1259;72760;-78
2023/07/11 12:01:41;;;;;;;;;;;;;;;26.82;33.15;100151.32;108246;1258;61214;-78
2023/07/11 12:04:28;;;;;;;;;;;;;;;26.86;33.56;100151.11;108203;1254;61327;-78
2023/07/11 12:07:06;;;;;;;;;;;;;;;26.95;33.83;100153.08;108206;1256;74842;-79
2023/07/11 12:10:15;;;;;;;;;;;;;;;27.10;33.54;100153.70;108155;1254;72983;-78
2023/07/11 12:12:45;;;;;;;;;;;;;;;27.29;32.64;100159.59;107819;1260;73631;-78
2023/07/11 12:15:28;;;;;;;;;;;;;;;27.39;32.84;100158.95;108105;1258;61159;-78
2023/07/11 12:18:14;;;;;;;;;;;;;;;27.48;32.35;100157.84;108239;1254;61322;-79
2023/07/11 12:20:42;;;;;;;;;;;;;;;27.48;32.33;100152.66;108201;1254;74722;-78
2023/07/11 12:23:28;;;;;;;;;;;;;;;27.51;32.59;100154.81;108218;1254;73871;-79
2023/07/11 12:26:38;;;;;;;;;;;;;;;27.62;31.99;100150.02;108166;1254;72852;-79
2023/07/11 12:29:25;;;;;;;;;;;;;;;27.77;31.32;100146.45;108210;1255;61110;-78
2023/07/11 12:32:19;;;;;;;;;;;;;;;27.74;30.44;100140.61;108207;1254;59908;-79
2023/07/11 12:35:03;;;;;;;;;;;;;;;27.71;31.68;100141.13;108199;1254;75592;-79
2023/07/11 12:37:51;;;;;;;;;;;;;;;27.73;31.88;100141.84;108178;1254;73519;-79
2023/07/11 12:40:23;;;;;;;;;;;;;;;27.77;31.61;100141.58;108111;1257;71337;-78